createdAt,value
2023-04-19T00:00:37.037Z,9.4768
2023-04-19T00:01:38.095Z,9.3783
2023-04-19T00:02:40.376Z,9.8664
2023-04-19T00:03:40.397Z,10.0283
2023-04-19T00:04:41.301Z,10.1168
2023-04-19T00:05:42.189Z,9.8868
2023-04-19T00:06:43.200Z,10.3751
2023-04-19T00:07:44.332Z,9.9829
2023-04-19T00:08:45.299Z,10.3943
2023-04-19T00:09:46.340Z,9.9168
2023-04-19T00:10:47.395Z,9.7137
2023-04-19T00:11:48.419Z,10.3162
2023-04-19T00:12:49.521Z,10.3050
2023-04-19T00:13:50.543Z,9.5237
2023-04-19T00:14:51.575Z,9.8018
2023-04-19T00:15:52.626Z,10.1850
2023-04-19T00:16:53.794Z,10.9379
2023-04-19T00:17:54.820Z,10.4284
2023-04-19T00:18:55.700Z,10.3979
2023-04-19T00:19:56.793Z,10.6251
2023-04-19T00:20:57.820Z,10.5864
2023-04-19T00:21:58.808Z,11.3526
2023-04-19T00:22:59.900Z,11.0661
2023-04-19T00:24:00.874Z,10.9097
2023-04-19T00:25:01.983Z,11.1277
2023-04-19T00:26:02.980Z,11.6103
2023-04-19T00:27:03.997Z,11.5882
2023-04-19T00:28:05.087Z,10.9850
2023-04-19T00:29:06.084Z,11.1714
2023-04-19T00:30:07.139Z,9.9472
2023-04-19T00:31:08.213Z,10.5097
2023-04-19T00:32:09.197Z,10.5532
2023-04-19T00:33:10.326Z,10.8256
2023-04-19T00:34:11.286Z,11.2626
2023-04-19T00:35:12.338Z,10.9356
2023-04-19T00:36:13.360Z,11.0336
2023-04-19T00:37:14.317Z,10.4471
2023-04-19T00:38:15.381Z,10.8642
2023-04-19T00:39:16.402Z,10.5739
2023-04-19T00:40:17.442Z,10.9654
2023-04-19T00:41:18.472Z,11.0560
2023-04-19T00:42:19.497Z,11.0209
2023-04-19T00:43:20.564Z,11.0810
2023-04-19T00:44:21.660Z,11.6544
2023-04-19T00:45:22.631Z,11.1903
2023-04-19T00:46:23.742Z,10.6124
2023-04-19T00:47:24.696Z,11.5628
2023-04-19T00:48:25.728Z,11.6891
2023-04-19T00:49:26.821Z,11.3300
2023-04-19T00:50:27.820Z,11.2352
2023-04-19T00:51:28.859Z,11.3495
2023-04-19T00:52:29.909Z,11.1567
2023-04-19T00:53:30.937Z,11.6399
2023-04-19T00:54:32.027Z,11.4307
2023-04-19T00:55:33.035Z,11.6540
2023-04-19T00:56:34.057Z,10.7279
2023-04-19T00:57:35.082Z,11.0702
2023-04-19T00:58:36.125Z,11.4748
2023-04-19T00:59:37.226Z,10.7191
2023-04-19T01:00:38.230Z,10.9566
2023-04-19T01:01:39.335Z,11.4967
2023-04-19T01:02:40.508Z,11.9907
2023-04-19T01:03:41.541Z,11.3937
2023-04-19T01:04:42.407Z,11.3456
2023-04-19T01:05:43.425Z,11.0716
2023-04-19T01:06:44.466Z,11.0704
2023-04-19T01:07:45.505Z,11.2565
2023-04-19T01:08:46.544Z,10.7711
2023-04-19T01:09:47.603Z,11.6749
2023-04-19T01:10:48.604Z,11.2225
2023-04-19T01:11:49.689Z,10.8489
2023-04-19T01:12:50.729Z,10.7358
2023-04-19T01:13:51.754Z,11.4183
2023-04-19T01:14:52.807Z,11.5941
2023-04-19T01:15:53.856Z,10.5150
2023-04-19T01:16:54.861Z,10.6227
2023-04-19T01:17:55.996Z,11.1337
2023-04-19T01:18:57.007Z,11.1899
2023-04-19T01:19:58.020Z,11.2972
2023-04-19T01:20:59.016Z,11.3117
2023-04-19T01:22:00.127Z,10.8774
2023-04-19T01:23:01.137Z,10.9676
2023-04-19T01:24:02.206Z,11.2090
2023-04-19T01:25:03.243Z,11.1813
2023-04-19T01:26:04.249Z,10.8765
2023-04-19T01:27:05.296Z,11.0527
2023-04-19T01:28:06.313Z,10.8213
2023-04-19T01:29:07.380Z,10.6638
2023-04-19T01:30:08.447Z,10.9557
2023-04-19T01:31:09.474Z,10.5295
2023-04-19T01:32:10.498Z,10.8377
2023-04-19T01:33:11.551Z,10.9085
2023-04-19T01:34:12.675Z,10.9435
2023-04-19T01:35:13.652Z,10.6021
2023-04-19T01:36:14.664Z,11.1550
2023-04-19T01:37:15.678Z,11.1885
2023-04-19T01:38:16.714Z,10.9284
2023-04-19T01:39:17.776Z,10.5772
2023-04-19T01:40:19.008Z,11.4699
2023-04-19T01:41:19.939Z,11.1243
2023-04-19T01:42:20.975Z,11.3208
2023-04-19T01:43:22.015Z,10.7291
2023-04-19T01:44:23.067Z,10.9603
2023-04-19T01:45:24.237Z,10.9373
2023-04-19T01:46:25.184Z,10.6481
2023-04-19T01:47:26.234Z,10.6677
2023-04-19T01:48:27.273Z,11.1769
2023-04-19T01:49:28.303Z,11.1745
2023-04-19T01:50:29.387Z,11.0713
2023-04-19T01:51:30.394Z,10.3993
2023-04-19T01:52:31.385Z,10.8016
2023-04-19T01:53:32.512Z,11.1347
2023-04-19T01:54:33.479Z,11.0441
2023-04-19T01:55:34.538Z,10.7133
2023-04-19T01:56:35.638Z,11.1064
2023-04-19T01:57:36.581Z,11.6188
2023-04-19T01:58:37.626Z,11.9577
2023-04-19T01:59:38.748Z,11.9491
2023-04-19T02:00:39.920Z,11.2374
2023-04-19T02:01:40.969Z,11.6564
2023-04-19T02:02:42.004Z,11.2110
2023-04-19T02:03:43.119Z,10.7654
2023-04-19T02:04:43.929Z,11.7213
2023-04-19T02:05:45.029Z,11.7772
2023-04-19T02:06:46.070Z,11.6601
2023-04-19T02:07:47.096Z,11.5612
2023-04-19T02:08:48.153Z,11.4466
2023-04-19T02:09:49.156Z,11.2560
2023-04-19T02:10:50.173Z,11.8276
2023-04-19T02:11:51.269Z,11.6716
2023-04-19T02:12:52.295Z,11.6383
2023-04-19T02:13:53.284Z,11.8183
2023-04-19T02:14:54.295Z,11.6725
2023-04-19T02:15:55.489Z,11.4851
2023-04-19T02:16:56.351Z,11.6010
2023-04-19T02:17:57.374Z,12.1717
2023-04-19T02:18:58.379Z,11.7970
2023-04-19T02:19:59.445Z,11.7793
2023-04-19T02:21:00.493Z,11.5782
2023-04-19T02:22:01.528Z,11.3715
2023-04-19T02:23:02.525Z,11.7617
2023-04-19T02:24:03.569Z,12.3389
2023-04-19T02:25:04.655Z,11.4474
2023-04-19T02:26:05.648Z,11.2217
2023-04-19T02:27:06.704Z,10.9243
2023-04-19T02:28:07.722Z,10.6727
2023-04-19T02:29:08.786Z,11.0798
2023-04-19T02:30:09.789Z,11.1551
2023-04-19T02:31:10.860Z,11.9066
2023-04-19T02:32:11.862Z,11.1325
2023-04-19T02:33:12.903Z,11.3204
2023-04-19T02:34:14.113Z,10.9907
2023-04-19T02:35:14.999Z,11.2470
2023-04-19T02:36:16.060Z,11.5151
2023-04-19T02:37:17.097Z,11.2815
2023-04-19T02:38:18.106Z,11.3526
2023-04-19T02:39:19.137Z,11.1975
2023-04-19T02:40:20.178Z,11.9862
2023-04-19T02:41:21.276Z,11.4877
2023-04-19T02:42:22.275Z,11.6266
2023-04-19T02:43:23.295Z,10.9368
2023-04-19T02:44:24.334Z,11.5296
2023-04-19T02:45:25.372Z,11.9565
2023-04-19T02:46:26.532Z,11.2075
2023-04-19T02:47:27.475Z,11.4843
2023-04-19T02:48:28.499Z,11.1675
2023-04-19T02:49:29.526Z,11.4272
2023-04-19T02:50:30.591Z,11.4462
2023-04-19T02:51:31.694Z,11.1821
2023-04-19T02:52:32.671Z,11.7254
2023-04-19T02:53:33.715Z,11.9832
2023-04-19T02:54:34.730Z,11.3625
2023-04-19T02:55:35.787Z,11.7475
2023-04-19T02:56:36.853Z,11.3151
2023-04-19T02:57:37.856Z,11.3588
2023-04-19T02:58:38.889Z,11.6732
2023-04-19T02:59:39.951Z,11.0992
2023-04-19T03:00:40.994Z,11.4970
2023-04-19T03:01:42.091Z,10.9806
2023-04-19T03:02:43.128Z,10.9714
2023-04-19T03:03:44.191Z,11.4915
2023-04-19T03:04:45.164Z,11.0834
2023-04-19T03:05:46.213Z,11.8114
2023-04-19T03:06:47.303Z,11.2416
2023-04-19T03:07:48.316Z,11.6379
2023-04-19T03:08:49.318Z,11.8649
2023-04-19T03:09:50.361Z,11.2460
2023-04-19T03:10:51.411Z,10.4201
2023-04-19T03:11:52.520Z,10.6520
2023-04-19T03:12:53.575Z,11.2885
2023-04-19T03:13:54.586Z,10.6130
2023-04-19T03:14:55.647Z,11.0424
2023-04-19T03:15:56.729Z,10.3144
2023-04-19T03:16:57.748Z,10.3929
2023-04-19T03:17:58.785Z,10.8412
2023-04-19T03:18:59.809Z,11.1191
2023-04-19T03:20:00.856Z,10.9720
2023-04-19T03:21:01.917Z,10.6622
2023-04-19T03:22:02.990Z,10.9456
2023-04-19T03:23:03.997Z,11.1145
2023-04-19T03:24:05.107Z,10.8811
2023-04-19T03:25:06.169Z,10.8458
2023-04-19T03:26:07.214Z,10.9275
2023-04-19T03:27:08.339Z,11.1827
2023-04-19T03:28:09.278Z,10.8655
2023-04-19T03:29:10.342Z,10.6801
2023-04-19T03:30:11.343Z,10.3737
2023-04-19T03:31:12.431Z,10.8220
2023-04-19T03:32:13.493Z,10.3199
2023-04-19T03:33:14.487Z,10.9360
2023-04-19T03:34:15.671Z,11.0576
2023-04-19T03:35:16.542Z,11.0062
2023-04-19T03:36:17.607Z,10.6409
2023-04-19T03:37:18.692Z,11.1369
2023-04-19T03:38:19.654Z,10.6942
2023-04-19T03:39:20.704Z,10.2260
2023-04-19T03:40:21.751Z,11.0522
2023-04-19T03:41:22.821Z,11.0304
2023-04-19T03:42:23.872Z,11.1084
2023-04-19T03:43:24.839Z,10.5159
2023-04-19T03:44:25.885Z,10.5557
2023-04-19T03:45:26.942Z,10.2051
2023-04-19T03:46:28.117Z,10.3111
2023-04-19T03:47:29.142Z,11.0951
2023-04-19T03:48:30.090Z,10.8950
2023-04-19T03:49:31.077Z,10.8282
2023-04-19T03:50:32.135Z,11.0973
2023-04-19T03:51:33.177Z,11.0785
2023-04-19T03:52:34.293Z,10.4995
2023-04-19T03:53:35.316Z,10.8211
2023-04-19T03:54:36.332Z,10.6773
2023-04-19T03:55:37.346Z,11.0544
2023-04-19T03:56:38.396Z,10.7286
2023-04-19T03:57:39.454Z,10.9508
2023-04-19T03:58:42.239Z,11.3339
2023-04-19T03:59:41.492Z,10.7667
2023-04-19T04:00:42.525Z,11.6849
2023-04-19T04:01:43.535Z,10.9122
2023-04-19T04:02:44.839Z,11.4493
2023-04-19T04:03:45.895Z,11.1635
2023-04-19T04:04:46.830Z,10.5152
2023-04-19T04:05:47.697Z,10.6023
2023-04-19T04:06:48.700Z,10.3797
2023-04-19T04:07:49.769Z,10.5937
2023-04-19T04:08:50.780Z,10.8277
2023-04-19T04:09:51.820Z,10.5484
2023-04-19T04:10:52.868Z,10.6868
2023-04-19T04:11:53.874Z,11.0152
2023-04-19T04:12:54.964Z,10.8873
2023-04-19T04:13:55.966Z,10.9035
2023-04-19T04:14:57.046Z,10.5784
2023-04-19T04:15:58.129Z,10.8379
2023-04-19T04:16:59.105Z,10.6852
2023-04-19T04:18:00.286Z,10.5536
2023-04-19T04:19:01.188Z,10.7677
2023-04-19T04:20:02.473Z,11.3057
2023-04-19T04:21:03.254Z,11.1186
2023-04-19T04:22:04.313Z,10.5645
2023-04-19T04:23:05.377Z,10.7222
2023-04-19T04:24:06.362Z,10.4342
2023-04-19T04:25:07.433Z,10.5047
2023-04-19T04:26:08.440Z,10.4604
2023-04-19T04:27:09.509Z,11.0875
2023-04-19T04:28:10.545Z,11.0627
2023-04-19T04:29:11.565Z,11.1010
2023-04-19T04:30:12.612Z,11.1532
2023-04-19T04:31:13.650Z,10.5340
2023-04-19T04:32:14.693Z,10.7474
2023-04-19T04:33:15.766Z,10.7137
2023-04-19T04:34:17.009Z,10.5414
2023-04-19T04:35:17.815Z,10.6922
2023-04-19T04:36:18.861Z,10.9724
2023-04-19T04:37:19.892Z,10.4284
2023-04-19T04:38:24.724Z,11.1628
2023-04-19T04:39:21.970Z,11.0938
2023-04-19T04:40:23.034Z,10.5489
2023-04-19T04:41:24.083Z,10.6888
2023-04-19T04:42:25.311Z,10.5526
2023-04-19T04:43:26.205Z,10.9624
2023-04-19T04:44:27.556Z,10.9094
2023-04-19T04:45:28.259Z,10.3418
2023-04-19T04:46:29.290Z,10.5948
2023-04-19T04:47:30.403Z,11.2740
2023-04-19T04:48:31.417Z,11.0864
2023-04-19T04:49:32.376Z,10.3695
2023-04-19T04:50:33.419Z,11.2360
2023-04-19T04:51:34.463Z,11.2576
2023-04-19T04:52:35.523Z,10.8613
2023-04-19T04:53:36.582Z,10.6555
2023-04-19T04:54:37.668Z,10.6824
2023-04-19T04:55:38.611Z,11.2651
2023-04-19T04:56:39.694Z,11.2924
2023-04-19T04:57:40.729Z,10.9478
2023-04-19T04:58:41.800Z,10.3591
2023-04-19T04:59:42.812Z,11.0646
2023-04-19T05:00:43.815Z,11.0610
2023-04-19T05:01:44.898Z,10.4377
2023-04-19T05:02:46.037Z,10.9500
2023-04-19T05:03:47.145Z,11.4590
2023-04-19T05:04:48.040Z,11.0560
2023-04-19T05:05:49.010Z,10.7537
2023-04-19T05:06:50.156Z,11.3513
2023-04-19T05:07:51.173Z,10.8169
2023-04-19T05:08:52.323Z,10.8941
2023-04-19T05:09:53.283Z,10.9484
2023-04-19T05:10:54.318Z,10.8070
2023-04-19T05:11:55.420Z,14.2755
2023-04-19T05:12:56.380Z,12.2533
2023-04-19T05:13:57.594Z,11.7409
2023-04-19T05:14:58.481Z,13.9259
2023-04-19T05:15:59.610Z,23.8885
2023-04-19T05:17:00.559Z,29.0714
2023-04-19T05:18:01.629Z,19.1369
2023-04-19T05:19:02.697Z,12.2137
2023-04-19T05:20:03.647Z,14.1214
2023-04-19T05:21:04.680Z,14.0048
2023-04-19T05:22:05.810Z,11.8645
2023-04-19T05:23:06.831Z,13.3004
2023-04-19T05:24:07.856Z,11.3219
2023-04-19T05:25:08.835Z,10.8679
2023-04-19T05:26:09.883Z,11.3182
2023-04-19T05:27:10.917Z,11.2371
2023-04-19T05:28:11.998Z,11.6403
2023-04-19T05:29:13.077Z,11.2568
2023-04-19T05:30:14.098Z,11.4055
2023-04-19T05:31:15.134Z,12.9385
2023-04-19T05:32:16.142Z,14.6343
2023-04-19T05:33:17.179Z,19.5045
2023-04-19T05:34:20.585Z,18.8656
2023-04-19T05:35:19.247Z,14.8063
2023-04-19T05:36:20.296Z,15.7827
2023-04-19T05:37:21.396Z,13.3600
2023-04-19T05:38:22.406Z,12.1048
2023-04-19T05:39:23.547Z,12.1217
2023-04-19T05:40:24.509Z,12.7297
2023-04-19T05:41:25.570Z,12.3485
2023-04-19T05:42:26.569Z,11.5511
2023-04-19T05:43:27.792Z,13.0747
2023-04-19T05:44:28.746Z,15.5237
2023-04-19T05:45:29.663Z,20.0166
2023-04-19T05:46:30.751Z,25.1524
2023-04-19T05:47:31.788Z,13.7729
2023-04-19T05:48:32.753Z,11.8257
2023-04-19T05:49:33.873Z,10.6117
2023-04-19T05:50:34.852Z,10.1837
2023-04-19T05:51:35.871Z,11.2492
2023-04-19T05:52:36.928Z,24.2697
2023-04-19T05:53:37.982Z,18.1590
2023-04-19T05:54:39.049Z,12.0529
2023-04-19T05:55:40.073Z,10.7757
2023-04-19T05:56:41.118Z,11.0838
2023-04-19T05:57:42.155Z,11.1408
2023-04-19T05:58:43.196Z,10.7421
2023-04-19T05:59:44.297Z,10.4077
2023-04-19T06:00:45.288Z,10.4025
2023-04-19T06:01:46.353Z,10.9070
2023-04-19T06:02:47.445Z,10.6863
2023-04-19T06:03:48.489Z,11.5287
2023-04-19T06:04:49.763Z,10.4434
2023-04-19T06:05:50.543Z,11.2145
2023-04-19T06:06:51.543Z,10.6167
2023-04-19T06:07:59.399Z,10.8377
2023-04-19T06:08:54.848Z,11.0556
2023-04-19T06:09:54.684Z,11.0416
2023-04-19T06:11:00.121Z,11.3013
2023-04-19T06:11:56.740Z,11.2169
2023-04-19T06:12:57.749Z,11.1107
2023-04-19T06:13:58.838Z,10.9539
2023-04-19T06:14:59.865Z,10.7077
2023-04-19T06:16:00.975Z,11.1535
2023-04-19T06:17:01.931Z,10.9041
2023-04-19T06:18:02.983Z,10.6347
2023-04-19T06:19:04.021Z,11.1739
2023-04-19T06:20:05.123Z,11.1791
2023-04-19T06:21:06.095Z,11.6094
2023-04-19T06:22:07.224Z,10.9435
2023-04-19T06:23:08.181Z,10.5154
2023-04-19T06:24:09.182Z,10.5219
2023-04-19T06:25:10.282Z,10.7814
2023-04-19T06:26:11.325Z,10.3123
2023-04-19T06:27:12.317Z,11.1600
2023-04-19T06:28:13.370Z,10.1160
2023-04-19T06:29:14.420Z,10.2004
2023-04-19T06:30:15.514Z,10.6522
2023-04-19T06:31:16.525Z,11.8558
2023-04-19T06:32:17.591Z,22.2334
2023-04-19T06:33:18.578Z,18.2150
2023-04-19T06:34:19.866Z,10.7546
2023-04-19T06:35:20.682Z,13.3087
2023-04-19T06:36:21.739Z,11.9131
2023-04-19T06:37:22.729Z,10.7198
2023-04-19T06:38:23.784Z,10.0024
2023-04-19T06:39:24.841Z,9.6184
2023-04-19T06:40:25.904Z,10.1686
2023-04-19T06:41:26.939Z,10.8221
2023-04-19T06:42:27.977Z,9.9714
2023-04-19T06:43:29.130Z,10.4180
2023-04-19T06:44:30.058Z,10.6311
2023-04-19T06:45:31.177Z,11.6609
2023-04-19T06:46:32.521Z,9.8674
2023-04-19T06:47:35.429Z,10.3960
2023-04-19T06:48:34.266Z,12.3429
2023-04-19T06:49:35.389Z,9.7351
2023-04-19T06:50:36.315Z,9.8458
2023-04-19T06:51:37.430Z,10.5669
2023-04-19T06:52:38.434Z,10.0820
2023-04-19T06:53:39.433Z,11.3237
2023-04-19T06:54:40.497Z,19.5198
2023-04-19T06:55:41.594Z,14.7214
2023-04-19T06:56:42.755Z,14.6671
2023-04-19T06:57:43.634Z,13.3087
2023-04-19T06:58:44.694Z,15.5554
2023-04-19T06:59:45.718Z,12.8220
2023-04-19T07:00:46.792Z,11.9654
2023-04-19T07:01:47.976Z,10.0925
2023-04-19T07:02:48.969Z,10.0859
2023-04-19T07:03:50.050Z,9.4855
2023-04-19T07:04:51.016Z,9.7870
2023-04-19T07:05:52.033Z,9.7019
2023-04-19T07:06:53.033Z,9.9109
2023-04-19T07:07:54.078Z,10.4350
2023-04-19T07:08:55.137Z,10.0074
2023-04-19T07:09:56.186Z,10.2259
2023-04-19T07:10:57.250Z,10.1901
2023-04-19T07:11:58.367Z,10.4934
2023-04-19T07:12:59.377Z,10.1297
2023-04-19T07:14:00.427Z,10.3773
2023-04-19T07:15:01.460Z,11.1085
2023-04-19T07:16:02.586Z,10.4077
2023-04-19T07:17:03.608Z,10.2221
2023-04-19T07:18:04.618Z,11.1925
2023-04-19T07:19:05.636Z,11.7713
2023-04-19T07:20:06.723Z,11.2846
2023-04-19T07:21:07.697Z,10.4683
2023-04-19T07:22:08.828Z,11.2987
2023-04-19T07:23:09.885Z,11.8662
2023-04-19T07:24:10.848Z,10.7989
2023-04-19T07:25:11.891Z,11.1773
2023-04-19T07:26:12.916Z,12.0308
2023-04-19T07:27:14.065Z,10.3310
2023-04-19T07:28:14.994Z,10.5179
2023-04-19T07:29:16.035Z,10.8772
2023-04-19T07:30:17.119Z,11.5341
2023-04-19T07:31:18.190Z,11.0744
2023-04-19T07:32:19.269Z,11.1257
2023-04-19T07:33:20.222Z,11.7252
2023-04-19T07:34:21.252Z,11.5811
2023-04-19T07:35:22.349Z,10.9312
2023-04-19T07:36:23.333Z,10.7419
2023-04-19T07:37:24.447Z,11.0232
2023-04-19T07:38:25.419Z,10.5832
2023-04-19T07:39:26.461Z,11.0146
2023-04-19T07:40:27.492Z,11.3223
2023-04-19T07:41:28.553Z,10.8577
2023-04-19T07:42:29.621Z,11.0785
2023-04-19T07:43:30.676Z,10.7651
2023-04-19T07:44:31.652Z,11.5143
2023-04-19T07:45:32.710Z,12.0046
2023-04-19T07:46:33.814Z,10.8034
2023-04-19T07:47:34.889Z,11.0247
2023-04-19T07:48:35.882Z,11.8496
2023-04-19T07:49:36.901Z,11.2833
2023-04-19T07:50:37.937Z,11.5832
2023-04-19T07:51:38.995Z,12.6478
2023-04-19T07:52:40.078Z,11.7572
2023-04-19T07:53:41.102Z,11.1252
2023-04-19T07:54:42.131Z,10.7181
2023-04-19T07:55:43.133Z,10.7233
2023-04-19T07:56:44.151Z,10.0039
2023-04-19T07:57:45.297Z,10.2778
2023-04-19T07:58:50.917Z,10.9748
2023-04-19T07:59:47.313Z,12.6160
2023-04-19T08:00:48.491Z,13.6721
2023-04-19T08:01:49.533Z,12.2360
2023-04-19T08:02:50.776Z,11.9355
2023-04-19T08:03:51.774Z,10.8740
2023-04-19T08:04:53.030Z,10.6615
2023-04-19T08:05:53.851Z,10.2021
2023-04-19T08:06:54.619Z,11.4546
2023-04-19T08:07:55.679Z,11.8390
2023-04-19T08:08:56.694Z,11.1341
2023-04-19T08:09:57.808Z,10.5987
2023-04-19T08:11:00.735Z,10.2999
2023-04-19T08:11:59.796Z,10.1528
2023-04-19T08:13:05.179Z,10.1784
2023-04-19T08:14:12.015Z,11.2708
2023-04-19T08:15:11.179Z,11.3720
2023-04-19T08:16:36.940Z,10.8348
2023-04-19T08:18:06.159Z,11.5401
2023-04-19T08:19:07.120Z,10.8643
2023-04-19T08:20:08.176Z,12.2341
2023-04-19T08:21:09.208Z,11.2847
2023-04-19T08:22:10.218Z,11.0468
2023-04-19T08:23:22.321Z,10.8799
2023-04-19T08:24:12.334Z,22.0711
2023-04-19T08:25:13.378Z,22.6817
2023-04-19T08:26:14.429Z,12.9937
2023-04-19T08:27:15.486Z,9.9085
2023-04-19T08:28:16.598Z,10.5201
2023-04-19T08:29:17.712Z,9.6503
2023-04-19T08:30:18.592Z,9.9591
2023-04-19T08:31:19.631Z,10.3410
2023-04-19T08:32:20.698Z,11.5692
2023-04-19T08:33:21.768Z,10.9525
2023-04-19T08:34:22.739Z,10.4775
2023-04-19T08:35:23.813Z,10.9835
2023-04-19T08:36:34.803Z,11.6965
2023-04-19T08:37:25.896Z,13.2789
2023-04-19T08:38:26.984Z,11.1082
2023-04-19T08:39:33.030Z,10.8878
2023-04-19T08:40:29.040Z,10.0579
2023-04-19T08:41:30.046Z,10.7335
2023-04-19T08:42:36.529Z,10.2130
2023-04-19T08:43:32.164Z,10.1283
2023-04-19T08:44:36.503Z,10.7530
2023-04-19T08:45:34.208Z,11.0694
2023-04-19T08:46:35.284Z,10.9107
2023-04-19T08:47:41.958Z,10.9996
2023-04-19T08:48:37.436Z,11.3029
2023-04-19T08:49:39.986Z,14.1261
2023-04-19T08:50:48.836Z,10.7475
2023-04-19T08:51:40.478Z,10.0716
2023-04-19T08:52:51.984Z,10.7563
2023-04-19T08:53:42.592Z,10.7091
2023-04-19T08:54:43.615Z,10.0240
2023-04-19T08:56:03.557Z,10.9309
2023-04-19T08:56:45.688Z,10.6552
2023-04-19T08:57:46.725Z,9.6191
2023-04-19T08:59:48.790Z,9.0798
2023-04-19T09:00:49.834Z,9.5676
2023-04-19T09:01:50.915Z,10.0071
2023-04-19T09:02:52.227Z,11.6778
2023-04-19T09:04:04.652Z,10.0894
2023-04-19T09:04:54.132Z,10.3753
2023-04-19T09:05:55.270Z,9.6490
2023-04-19T09:06:56.131Z,9.7483
2023-04-19T09:07:57.168Z,10.4347
2023-04-19T09:08:58.233Z,10.4046
2023-04-19T09:10:02.732Z,10.4552
2023-04-19T09:11:00.286Z,10.3456
2023-04-19T09:12:01.320Z,10.4224
2023-04-19T09:13:02.369Z,13.3988
2023-04-19T09:14:03.474Z,17.1046
2023-04-19T09:15:04.437Z,14.1212
2023-04-19T09:16:05.656Z,12.3330
2023-04-19T09:17:06.504Z,9.8294
2023-04-19T09:18:07.847Z,9.5887
2023-04-19T09:19:19.955Z,9.3422
2023-04-19T09:20:09.658Z,9.6269
2023-04-19T09:21:10.688Z,10.0878
2023-04-19T09:22:11.724Z,10.5867
2023-04-19T09:23:12.836Z,9.9514
2023-04-19T09:24:14.184Z,9.8683
2023-04-19T09:25:39.268Z,9.2768
2023-04-19T09:26:22.865Z,9.4914
2023-04-19T09:27:16.954Z,9.6290
2023-04-19T09:28:17.978Z,10.1893
2023-04-19T09:29:19.422Z,10.5396
2023-04-19T09:30:29.992Z,10.3067
2023-04-19T09:31:38.943Z,10.8288
2023-04-19T09:32:22.318Z,10.1585
2023-04-19T09:33:23.355Z,10.1133
2023-04-19T09:34:24.300Z,10.1005
2023-04-19T09:35:25.308Z,9.9799
2023-04-19T09:36:26.357Z,10.3354
2023-04-19T09:37:39.134Z,10.5103
2023-04-19T09:38:28.387Z,10.1013
2023-04-19T09:39:29.494Z,10.2424
2023-04-19T09:40:30.487Z,10.5154
2023-04-19T09:41:31.540Z,10.6830
2023-04-19T09:42:54.449Z,10.9224
2023-04-19T09:45:02.171Z,9.6978
2023-04-19T09:45:35.712Z,9.5940
2023-04-19T09:46:36.847Z,10.3608
2023-04-19T09:47:37.793Z,9.3512
2023-04-19T09:48:38.854Z,9.3941
2023-04-19T09:49:48.479Z,10.1337
2023-04-19T09:50:53.617Z,9.8576
2023-04-19T09:51:41.940Z,9.5670
2023-04-19T09:52:42.976Z,9.9814
2023-04-19T09:53:44.028Z,9.9683
2023-04-19T09:54:45.074Z,9.8483
2023-04-19T09:55:59.746Z,9.6643
2023-04-19T09:56:47.138Z,9.8324
2023-04-19T09:57:48.153Z,9.8604
2023-04-19T09:58:52.774Z,9.5561
2023-04-19T09:59:50.267Z,9.5380
2023-04-19T10:00:54.991Z,9.4841
2023-04-19T10:01:52.345Z,9.6155
2023-04-19T10:02:53.424Z,9.1593
2023-04-19T10:03:55.365Z,9.4927
2023-04-19T10:05:11.355Z,9.5913
2023-04-19T10:05:56.677Z,9.4096
2023-04-19T10:07:19.253Z,9.2034
2023-04-19T10:07:59.859Z,9.0561
2023-04-19T10:08:59.578Z,9.2178
2023-04-19T10:11:01.673Z,8.6598
2023-04-19T10:12:11.377Z,9.1851
2023-04-19T10:14:04.746Z,8.7664
2023-04-19T10:15:05.814Z,9.2439
2023-04-19T10:16:18.147Z,9.9351
2023-04-19T10:17:07.962Z,8.7596
2023-04-19T10:18:08.926Z,8.7540
2023-04-19T10:19:10.158Z,8.7554
2023-04-19T10:20:11.037Z,8.8871
2023-04-19T10:21:12.107Z,8.6247
2023-04-19T10:22:13.117Z,9.0877
2023-04-19T10:23:14.128Z,9.8362
2023-04-19T10:24:15.176Z,9.4736
2023-04-19T10:25:16.226Z,8.8711
2023-04-19T10:26:17.335Z,8.1543
2023-04-19T10:27:18.295Z,8.6691
2023-04-19T10:28:19.292Z,8.5782
2023-04-19T10:29:20.352Z,9.0875
2023-04-19T10:30:21.394Z,9.1790
2023-04-19T10:31:22.536Z,8.2385
2023-04-19T10:32:23.531Z,8.0995
2023-04-19T10:33:24.484Z,8.8775
2023-04-19T10:34:25.541Z,8.9770
2023-04-19T10:35:26.563Z,8.7206
2023-04-19T10:36:27.683Z,9.0768
2023-04-19T10:37:28.643Z,8.7477
2023-04-19T10:38:29.689Z,9.3806
2023-04-19T10:39:30.737Z,8.9158
2023-04-19T10:40:31.782Z,8.7160
2023-04-19T10:41:32.867Z,8.9925
2023-04-19T10:42:33.875Z,9.4663
2023-04-19T10:43:34.896Z,9.7052
2023-04-19T10:44:35.944Z,9.6857
2023-04-19T10:45:36.999Z,9.1564
2023-04-19T10:46:38.089Z,9.3867
2023-04-19T10:47:39.114Z,9.2899
2023-04-19T10:48:40.085Z,9.2111
2023-04-19T10:49:41.140Z,8.8643
2023-04-19T10:50:42.467Z,9.0933
2023-04-19T10:51:43.365Z,8.9044
2023-04-19T10:52:44.275Z,9.0489
2023-04-19T10:53:45.338Z,8.8239
2023-04-19T10:54:46.378Z,8.8570
2023-04-19T10:55:47.380Z,8.6319
2023-04-19T10:56:48.493Z,8.5686
2023-04-19T10:57:49.442Z,8.4240
2023-04-19T10:58:50.473Z,8.2956
2023-04-19T10:59:51.526Z,8.9191
2023-04-19T11:00:52.569Z,9.5667
2023-04-19T11:01:53.854Z,9.4763
2023-04-19T11:02:54.730Z,8.7802
2023-04-19T11:03:55.963Z,9.3238
2023-04-19T11:04:56.734Z,9.5731
2023-04-19T11:05:57.780Z,8.6940
2023-04-19T11:06:58.847Z,9.3107
2023-04-19T11:07:59.903Z,13.7750
2023-04-19T11:09:00.882Z,11.6371
2023-04-19T11:10:02.010Z,9.9378
2023-04-19T11:11:02.990Z,12.5793
2023-04-19T11:12:04.041Z,10.2813
2023-04-19T11:13:05.120Z,9.7684
2023-04-19T11:14:06.167Z,8.9922
2023-04-19T11:15:07.237Z,8.9181
2023-04-19T11:16:08.366Z,8.7250
2023-04-19T11:17:09.342Z,9.3504
2023-04-19T11:18:12.994Z,9.8904
2023-04-19T11:19:11.380Z,9.3101
2023-04-19T11:20:12.688Z,9.1803
2023-04-19T11:21:13.457Z,9.0714
2023-04-19T11:22:14.499Z,9.1681
2023-04-19T11:23:15.577Z,9.2988
2023-04-19T11:24:16.560Z,9.2472
2023-04-19T11:25:17.612Z,9.1741
2023-04-19T11:26:18.680Z,8.9960
2023-04-19T11:27:19.672Z,9.1932
2023-04-19T11:28:20.752Z,9.1565
2023-04-19T11:29:21.773Z,8.8103
2023-04-19T11:30:23.255Z,9.1337
2023-04-19T11:31:23.912Z,8.3998
2023-04-19T11:32:24.975Z,8.6123
2023-04-19T11:33:25.951Z,8.5486
2023-04-19T11:34:26.947Z,8.7600
2023-04-19T11:35:27.964Z,9.0495
2023-04-19T11:36:29.051Z,8.7942
2023-04-19T11:37:30.097Z,8.4945
2023-04-19T11:38:31.156Z,9.0862
2023-04-19T11:39:32.145Z,8.6267
2023-04-19T11:40:33.207Z,8.7436
2023-04-19T11:41:34.225Z,8.7429
2023-04-19T11:42:35.269Z,8.7962
2023-04-19T11:43:36.350Z,8.1751
2023-04-19T11:44:37.344Z,8.9049
2023-04-19T11:45:39.636Z,9.1365
2023-04-19T11:46:39.438Z,8.6802
2023-04-19T11:47:40.498Z,9.1511
2023-04-19T11:48:41.517Z,8.7740
2023-04-19T11:49:42.533Z,9.0576
2023-04-19T11:50:43.556Z,8.8151
2023-04-19T11:51:44.623Z,8.7158
2023-04-19T11:52:45.784Z,8.9052
2023-04-19T11:53:46.709Z,9.2644
2023-04-19T11:54:47.714Z,9.7112
2023-04-19T11:55:48.811Z,8.7827
2023-04-19T11:56:49.850Z,8.3861
2023-04-19T11:57:50.890Z,8.9283
2023-04-19T11:58:51.944Z,9.6693
2023-04-19T11:59:52.922Z,9.2739
2023-04-19T12:00:54.004Z,9.4997
2023-04-19T12:01:55.094Z,8.9007
2023-04-19T12:02:56.174Z,8.6518
2023-04-19T12:03:57.498Z,8.5772
2023-04-19T12:04:58.396Z,9.2352
2023-04-19T12:05:59.181Z,9.1605
2023-04-19T12:07:00.176Z,9.0277
2023-04-19T12:08:01.244Z,9.9626
2023-04-19T12:09:02.311Z,9.3481
2023-04-19T12:10:03.309Z,9.0337
2023-04-19T12:11:04.357Z,9.0447
2023-04-19T12:12:05.417Z,8.5739
2023-04-19T12:13:06.444Z,9.2075
2023-04-19T12:14:07.520Z,8.9917
2023-04-19T12:15:08.501Z,9.0858
2023-04-19T12:16:09.586Z,9.5018
2023-04-19T12:17:10.758Z,9.0011
2023-04-19T12:18:11.667Z,9.5791
2023-04-19T12:19:12.668Z,8.9690
2023-04-19T12:20:13.713Z,9.2603
2023-04-19T12:21:14.738Z,9.2170
2023-04-19T12:22:15.731Z,9.0823
2023-04-19T12:23:16.798Z,9.7338
2023-04-19T12:24:17.856Z,9.1051
2023-04-19T12:25:18.922Z,9.3110
2023-04-19T12:26:19.901Z,9.5293
2023-04-19T12:27:20.945Z,9.3993
2023-04-19T12:28:21.993Z,9.2088
2023-04-19T12:29:23.036Z,9.3878